Vision — WDF6306 — position and weather

sailwx.info

Track history (hours):
 
Tides and Currents Weather Stations Pressure Air Temp Water Temp Dewpoint Dewpoint Depression Visibility Wind Speed Wind Dir Waves Ship Positions

Vision

Owner: INTREPID SHIP MANAGEMENT, JACKSONVILLE, FL. More information available from US FCC via Universal Licensing System and Coast Guard Vessel Documentation Center.

Last reported at 2016-May-26 11:13 UTC. Time now 2016-May-26 16:30 UTC.
Position N 43°36' W 125°49'.

Length 199 m; draft 6.2 m.

Type: Towing. MMSI: 366904000.

Date/timePositionNaut miles runAvg speedWind from/ knotsBaromVisibWave heightAir tempDewpointWater temp
2016-May-26 11:13N 43°36' W 125°49'1412.4
2016-May-26 10:04N 43°50' W 125°49'712.5
2016-May-26 09:30N 43°57' W 125°49'1211.9
2016-May-26 08:32N 44°09' W 125°49'1312.7
2016-May-26 07:31N 44°22' W 125°48'1312.3
2016-May-26 06:26N 44°35' W 125°48'1112.0
2016-May-26 05:31N 44°46' W 125°47'1112.0
2016-May-26 04:33N 44°57' W 125°47'1312.4
2016-May-26 03:32N 45°10' W 125°46'1715.9
2016-May-26 02:27N 45°27' W 125°45'8 8.3
2016-May-26 01:32N 45°35' W 125°45'1312.2
2016-May-26 00:29N 45°48' W 125°44'1112.2
2016-May-25 23:33N 45°59' W 125°44'2711.9
2016-May-25 21:16N 46°26' W 125°44'4711.5
2016-May-25 17:14N 47°13' W 125°44'4511.4
2016-May-25 13:19N 47°57' W 125°33'911.6
2016-May-25 12:33N 48°04' W 125°25'1212.0
2016-May-25 11:33N 48°14' W 125°15'1211.5
2016-May-25 10:31N 48°25' W 125°07'1110.1
2016-May-25 09:27N 48°31' W 124°53'3612.4
2016-May-25 06:33N 48°19' W 124°02'1312.1
2016-May-25 05:30N 48°16' W 123°43'1111.3
2016-May-25 04:34N 48°14' W 123°28'9 8.7
2016-May-25 03:33N 48°11' W 123°15'1211.6
2016-May-25 02:33N 48°19' W 123°03'1110.9
2016-May-25 01:33N 48°24' W 122°49'9 9.1
2016-May-25 00:33N 48°32' W 122°41'5 4.7
2016-May-24 23:30N 48°36' W 122°36'0 0.1
2016-May-24 22:33N 48°36' W 122°37'0 0.1
2016-May-24 21:30N 48°36' W 122°37'0 0.0
2016-May-24 20:33N 48°36' W 122°37'0 0.0
2016-May-24 19:24N 48°36' W 122°37'0 0.3
2016-May-24 18:34N 48°36' W 122°36'8 8.3
2016-May-24 17:34N 48°42' W 122°45'10 7.1
2016-May-24 16:11N 48°52' W 122°46'0 0.0
2016-May-24 15:33N 48°52' W 122°46'0 0.0
2016-May-24 12:24N 48°52' W 122°46'0 0.0
2016-May-24 11:30N 48°52' W 122°46'0 0.0
2016-May-24 04:31N 48°52' W 122°46'2 2.4
2016-May-24 03:33N 48°49' W 122°46'6 5.8
2016-May-24 02:33N 48°44' W 122°45'1211.7
2016-May-24 01:33N 48°32' W 122°45'1313.1
2016-May-24 00:33N 48°21' W 122°55'1313.2
2016-May-23 23:33N 48°14' W 123°12'1010.2
2016-May-23 22:33N 48°11' W 123°27'8 8.2
2016-May-23 21:33N 48°13' W 123°38'8 8.3
2016-May-23 20:33N 48°13' W 123°51'8 7.4
2016-May-23 19:32N 48°15' W 124°02'5 4.9
2016-May-23 18:32N 48°17' W 124°09'69 6.9
2016-May-23 08:33N 47°17' W 124°60'1211.9
2016-May-23 07:33N 47°06' W 124°54'1211.6
2016-May-23 06:33N 46°56' W 124°47'1111.2
2016-May-23 05:33N 46°46' W 124°40'1111.4
2016-May-23 04:33N 46°35' W 124°33'1111.3
2016-May-23 03:33N 46°25' W 124°26'1111.4
2016-May-23 02:33N 46°16' W 124°16'10 9.9
2016-May-23 01:34N 46°15' W 124°01'1111.3
2016-May-23 00:33N 46°13' W 123°45'1212.3
2016-May-22 23:34N 46°16' W 123°28'1010.2
2016-May-22 22:34N 46°09' W 123°18'1111.3
2016-May-22 21:34N 46°09' W 123°02'1211.6
2016-May-22 20:33N 45°60' W 122°51'1312.9
2016-May-22 19:33N 45°47' W 122°47'1111.3
2016-May-22 18:33N 45°36' W 122°47'3 2.3
2016-May-22 17:29N 45°34' W 122°44'0 0.0
2016-May-22 16:32N 45°34' W 122°44'0 0.0
2016-May-22 15:29N 45°34' W 122°44'0 0.0
2016-May-22 14:32N 45°34' W 122°44'0 0.0
2016-May-22 13:32N 45°34' W 122°44'0 0.0
2016-May-22 12:32N 45°34' W 122°44'0 0.0
2016-May-22 11:29N 45°34' W 122°44'0 0.0
2016-May-22 10:29N 45°34' W 122°44'0 0.0
2016-May-22 09:32N 45°34' W 122°44'0 0.0
2016-May-22 08:32N 45°34' W 122°44'0 0.0
2016-May-22 07:32N 45°34' W 122°44'0 0.0
2016-May-22 06:29N 45°34' W 122°44'0 0.0
2016-May-22 05:29N 45°34' W 122°44'0 0.0
2016-May-22 04:29N 45°34' W 122°44'0 0.0
2016-May-22 03:29N 45°34' W 122°44'0 0.0
2016-May-22 02:29N 45°34' W 122°44'0 0.0
2016-May-22 01:32N 45°34' W 122°44'0 0.0
2016-May-22 00:32N 45°34' W 122°44'0 0.0
2016-May-21 23:32N 45°34' W 122°44'0 0.0
2016-May-21 22:29N 45°34' W 122°44'0 0.0
2016-May-21 21:29N 45°34' W 122°44'0 0.0
2016-May-21 20:29N 45°34' W 122°44'0 0.0
2016-May-21 19:29N 45°34' W 122°44'0 0.0
2016-May-21 18:32N 45°34' W 122°44'0 0.0
2016-May-21 17:32N 45°34' W 122°44'0 0.0
2016-May-21 16:32N 45°34' W 122°44'0 0.0
2016-May-21 15:29N 45°34' W 122°44'0 0.0
2016-May-21 14:32N 45°34' W 122°44'0 0.0
2016-May-21 13:29N 45°34' W 122°44'0 0.0
2016-May-21 12:33N 45°34' W 122°44'5 4.6
2016-May-21 11:33N 45°38' W 122°47'2 1.9
2016-May-21 10:33N 45°40' W 122°46'0 0.0
2016-May-21 09:34N 45°40' W 122°46'0 0.0
2016-May-21 08:33N 45°40' W 122°46'0 0.0
2016-May-21 07:33N 45°40' W 122°46'0 0.0
2016-May-21 06:33N 45°40' W 122°46'0 0.0
2016-May-21 05:33N 45°40' W 122°46'0 0.0
2016-May-21 04:33N 45°40' W 122°46'0 0.0
2016-May-21 03:33N 45°40' W 122°46'0 0.0
2016-May-21 02:33N 45°40' W 122°46'0 0.0
2016-May-21 01:33N 45°40' W 122°46'0 0.0
2016-May-21 00:33N 45°40' W 122°46'0 0.0
2016-May-20 23:33N 45°40' W 122°46'2 1.6
2016-May-20 22:33N 45°42' W 122°47'9 9.4
2016-May-20 21:33N 45°51' W 122°47'9 9.4
2016-May-20 20:33N 45°60' W 122°51'9 8.5
2016-May-20 19:33N 46°07' W 122°58'9 9.1
2016-May-20 18:33N 46°11' W 123°10'9 9.2
2016-May-20 17:34N 46°09' W 123°23'9 8.6
2016-May-20 16:33N 46°16' W 123°29'10 9.6
2016-May-20 15:33N 46°14' W 123°43'9 9.0
2016-May-20 14:33N 46°11' W 123°55'8 7.9
2016-May-20 13:33N 46°15' W 124°05'1010.1
2016-May-20 12:33N 46°08' W 124°15'10 9.7
2016-May-20 11:33N 46°05' W 124°28'9 9.0
2016-May-20 10:33N 45°57' W 124°35'9 9.2
2016-May-20 09:33N 45°49' W 124°41'9 9.5
2016-May-20 08:33N 45°40' W 124°46'1211.5
2016-May-20 07:33N 45°29' W 124°52'1111.4
2016-May-20 06:34N 45°19' W 124°57'38510.4
2016-May-18 17:30N 38°54' W 124°56'20 9.5
2016-May-18 15:25N 38°35' W 124°47'9 9.8
2016-May-18 14:33N 38°28' W 124°42'10 9.8
2016-May-18 13:30N 38°19' W 124°36'1010.1
2016-May-18 12:33N 38°12' W 124°27'1110.8
2016-May-18 11:33N 38°05' W 124°17'1111.1
2016-May-18 10:33N 37°58' W 124°06'1111.3
2016-May-18 09:33N 37°50' W 123°55'1111.1
2016-May-18 08:33N 37°43' W 123°45'1111.2
2016-May-18 07:33N 37°36' W 123°33'1111.2
2016-May-18 06:33N 37°33' W 123°20'1111.4
2016-May-18 05:33N 37°33' W 123°06'1010.1
2016-May-18 04:33N 37°39' W 122°55'9 9.5
2016-May-18 03:33N 37°44' W 122°45'1010.3
2016-May-18 02:33N 37°48' W 122°33'8 8.1
2016-May-18 01:33N 37°49' W 122°23'4 3.7
2016-May-18 00:31N 37°45' W 122°20'0 0.2
2016-May-17 23:31N 37°46' W 122°20'0 0.1
2016-May-17 22:31N 37°46' W 122°20'0 0.0
2016-May-17 21:31N 37°46' W 122°20'0 0.0
2016-May-17 20:31N 37°46' W 122°20'0 0.0
2016-May-17 19:31N 37°46' W 122°20'0 0.0
2016-May-17 18:31N 37°46' W 122°20'0 0.2
2016-May-17 17:31N 37°45' W 122°20'0 0.1
2016-May-17 16:33N 37°45' W 122°20'8 8.3
2016-May-17 15:33N 37°53' W 122°25'8 8.4
2016-May-17 14:33N 38°01' W 122°24'1010.2
2016-May-17 13:33N 38°03' W 122°11'2 0.8
2016-May-17 10:32N 38°02' W 122°08'0 0.0
2016-May-17 09:32N 38°02' W 122°08'0 0.0
2016-May-17 02:20N 38°02' W 122°08'0 0.0
2016-May-17 01:32N 38°02' W 122°08'0 0.0
2016-May-17 00:32N 38°02' W 122°08'  
Track history (hours):
 
Tides and Currents Weather Stations Pressure Air Temp Water Temp Dewpoint Dewpoint Depression Visibility Wind Speed Wind Dir Waves Ship Positions

Vision

Owner: INTREPID SHIP MANAGEMENT, JACKSONVILLE, FL. More information available from US FCC via Universal Licensing System and Coast Guard Vessel Documentation Center.

Last reported at 2016-May-26 11:13 UTC. Time now 2016-May-26 16:30 UTC.
Position N 43°36' W 125°49'.

Length 199 m; draft 6.2 m.

Type: Towing. MMSI: 366904000.

Date/timePositionNaut miles runAvg speedWind from/ knotsBaromVisibWave heightAir tempDewpointWater temp
2016-May-26 11:13N 43°36' W 125°49'1412.4
2016-May-26 10:04N 43°50' W 125°49'712.5
2016-May-26 09:30N 43°57' W 125°49'1211.9
2016-May-26 08:32N 44°09' W 125°49'1312.7
2016-May-26 07:31N 44°22' W 125°48'1312.3
2016-May-26 06:26N 44°35' W 125°48'1112.0
2016-May-26 05:31N 44°46' W 125°47'1112.0
2016-May-26 04:33N 44°57' W 125°47'1312.4
2016-May-26 03:32N 45°10' W 125°46'1715.9
2016-May-26 02:27N 45°27' W 125°45'8 8.3
2016-May-26 01:32N 45°35' W 125°45'1312.2
2016-May-26 00:29N 45°48' W 125°44'1112.2
2016-May-25 23:33N 45°59' W 125°44'2711.9
2016-May-25 21:16N 46°26' W 125°44'4711.5
2016-May-25 17:14N 47°13' W 125°44'4511.4
2016-May-25 13:19N 47°57' W 125°33'911.6
2016-May-25 12:33N 48°04' W 125°25'1212.0
2016-May-25 11:33N 48°14' W 125°15'1211.5
2016-May-25 10:31N 48°25' W 125°07'1110.1
2016-May-25 09:27N 48°31' W 124°53'3612.4
2016-May-25 06:33N 48°19' W 124°02'1312.1
2016-May-25 05:30N 48°16' W 123°43'1111.3
2016-May-25 04:34N 48°14' W 123°28'9 8.7
2016-May-25 03:33N 48°11' W 123°15'1211.6
2016-May-25 02:33N 48°19' W 123°03'1110.9
2016-May-25 01:33N 48°24' W 122°49'9 9.1
2016-May-25 00:33N 48°32' W 122°41'5 4.7
2016-May-24 23:30N 48°36' W 122°36'0 0.1
2016-May-24 22:33N 48°36' W 122°37'0 0.1
2016-May-24 21:30N 48°36' W 122°37'0 0.0
2016-May-24 20:33N 48°36' W 122°37'0 0.0
2016-May-24 19:24N 48°36' W 122°37'0 0.3
2016-May-24 18:34N 48°36' W 122°36'8 8.3
2016-May-24 17:34N 48°42' W 122°45'10 7.1
2016-May-24 16:11N 48°52' W 122°46'0 0.0
2016-May-24 15:33N 48°52' W 122°46'0 0.0
2016-May-24 12:24N 48°52' W 122°46'0 0.0
2016-May-24 11:30N 48°52' W 122°46'0 0.0
2016-May-24 04:31N 48°52' W 122°46'2 2.4
2016-May-24 03:33N 48°49' W 122°46'6 5.8
2016-May-24 02:33N 48°44' W 122°45'1211.7
2016-May-24 01:33N 48°32' W 122°45'1313.1
2016-May-24 00:33N 48°21' W 122°55'1313.2
2016-May-23 23:33N 48°14' W 123°12'1010.2
2016-May-23 22:33N 48°11' W 123°27'8 8.2
2016-May-23 21:33N 48°13' W 123°38'8 8.3
2016-May-23 20:33N 48°13' W 123°51'8 7.4
2016-May-23 19:32N 48°15' W 124°02'5 4.9
2016-May-23 18:32N 48°17' W 124°09'69 6.9
2016-May-23 08:33N 47°17' W 124°60'1211.9
2016-May-23 07:33N 47°06' W 124°54'1211.6
2016-May-23 06:33N 46°56' W 124°47'1111.2
2016-May-23 05:33N 46°46' W 124°40'1111.4
2016-May-23 04:33N 46°35' W 124°33'1111.3
2016-May-23 03:33N 46°25' W 124°26'1111.4
2016-May-23 02:33N 46°16' W 124°16'10 9.9
2016-May-23 01:34N 46°15' W 124°01'1111.3
2016-May-23 00:33N 46°13' W 123°45'1212.3
2016-May-22 23:34N 46°16' W 123°28'1010.2
2016-May-22 22:34N 46°09' W 123°18'1111.3
2016-May-22 21:34N 46°09' W 123°02'1211.6
2016-May-22 20:33N 45°60' W 122°51'1312.9
2016-May-22 19:33N 45°47' W 122°47'1111.3
2016-May-22 18:33N 45°36' W 122°47'3 2.3
2016-May-22 17:29N 45°34' W 122°44'0 0.0
2016-May-22 16:32N 45°34' W 122°44'0 0.0
2016-May-22 15:29N 45°34' W 122°44'0 0.0
2016-May-22 14:32N 45°34' W 122°44'0 0.0
2016-May-22 13:32N 45°34' W 122°44'0 0.0
2016-May-22 12:32N 45°34' W 122°44'0 0.0
2016-May-22 11:29N 45°34' W 122°44'0 0.0
2016-May-22 10:29N 45°34' W 122°44'0 0.0
2016-May-22 09:32N 45°34' W 122°44'0 0.0
2016-May-22 08:32N 45°34' W 122°44'0 0.0
2016-May-22 07:32N 45°34' W 122°44'0 0.0
2016-May-22 06:29N 45°34' W 122°44'0 0.0
2016-May-22 05:29N 45°34' W 122°44'0 0.0
2016-May-22 04:29N 45°34' W 122°44'0 0.0
2016-May-22 03:29N 45°34' W 122°44'0 0.0
2016-May-22 02:29N 45°34' W 122°44'0 0.0
2016-May-22 01:32N 45°34' W 122°44'0 0.0
2016-May-22 00:32N 45°34' W 122°44'0 0.0
2016-May-21 23:32N 45°34' W 122°44'0 0.0
2016-May-21 22:29N 45°34' W 122°44'0 0.0
2016-May-21 21:29N 45°34' W 122°44'0 0.0
2016-May-21 20:29N 45°34' W 122°44'0 0.0
2016-May-21 19:29N 45°34' W 122°44'0 0.0
2016-May-21 18:32N 45°34' W 122°44'0 0.0
2016-May-21 17:32N 45°34' W 122°44'0 0.0
2016-May-21 16:32N 45°34' W 122°44'0 0.0
2016-May-21 15:29N 45°34' W 122°44'0 0.0
2016-May-21 14:32N 45°34' W 122°44'0 0.0
2016-May-21 13:29N 45°34' W 122°44'0 0.0
2016-May-21 12:33N 45°34' W 122°44'5 4.6
2016-May-21 11:33N 45°38' W 122°47'2 1.9
2016-May-21 10:33N 45°40' W 122°46'0 0.0
2016-May-21 09:34N 45°40' W 122°46'0 0.0
2016-May-21 08:33N 45°40' W 122°46'0 0.0
2016-May-21 07:33N 45°40' W 122°46'0 0.0
2016-May-21 06:33N 45°40' W 122°46'0 0.0
2016-May-21 05:33N 45°40' W 122°46'0 0.0
2016-May-21 04:33N 45°40' W 122°46'0 0.0
2016-May-21 03:33N 45°40' W 122°46'0 0.0
2016-May-21 02:33N 45°40' W 122°46'0 0.0
2016-May-21 01:33N 45°40' W 122°46'0 0.0
2016-May-21 00:33N 45°40' W 122°46'0 0.0
2016-May-20 23:33N 45°40' W 122°46'2 1.6
2016-May-20 22:33N 45°42' W 122°47'9 9.4
2016-May-20 21:33N 45°51' W 122°47'9 9.4
2016-May-20 20:33N 45°60' W 122°51'9 8.5
2016-May-20 19:33N 46°07' W 122°58'9 9.1
2016-May-20 18:33N 46°11' W 123°10'9 9.2
2016-May-20 17:34N 46°09' W 123°23'9 8.6
2016-May-20 16:33N 46°16' W 123°29'10 9.6
2016-May-20 15:33N 46°14' W 123°43'9 9.0
2016-May-20 14:33N 46°11' W 123°55'8 7.9
2016-May-20 13:33N 46°15' W 124°05'1010.1
2016-May-20 12:33N 46°08' W 124°15'10 9.7
2016-May-20 11:33N 46°05' W 124°28'9 9.0
2016-May-20 10:33N 45°57' W 124°35'9 9.2
2016-May-20 09:33N 45°49' W 124°41'9 9.5
2016-May-20 08:33N 45°40' W 124°46'1211.5
2016-May-20 07:33N 45°29' W 124°52'1111.4
2016-May-20 06:34N 45°19' W 124°57'38510.4
2016-May-18 17:30N 38°54' W 124°56'20 9.5
2016-May-18 15:25N 38°35' W 124°47'9 9.8
2016-May-18 14:33N 38°28' W 124°42'10 9.8
2016-May-18 13:30N 38°19' W 124°36'1010.1
2016-May-18 12:33N 38°12' W 124°27'1110.8
2016-May-18 11:33N 38°05' W 124°17'1111.1
2016-May-18 10:33N 37°58' W 124°06'1111.3
2016-May-18 09:33N 37°50' W 123°55'1111.1
2016-May-18 08:33N 37°43' W 123°45'1111.2
2016-May-18 07:33N 37°36' W 123°33'1111.2
2016-May-18 06:33N 37°33' W 123°20'1111.4
2016-May-18 05:33N 37°33' W 123°06'1010.1
2016-May-18 04:33N 37°39' W 122°55'9 9.5
2016-May-18 03:33N 37°44' W 122°45'1010.3
2016-May-18 02:33N 37°48' W 122°33'8 8.1
2016-May-18 01:33N 37°49' W 122°23'4 3.7
2016-May-18 00:31N 37°45' W 122°20'0 0.2
2016-May-17 23:31N 37°46' W 122°20'0 0.1
2016-May-17 22:31N 37°46' W 122°20'0 0.0
2016-May-17 21:31N 37°46' W 122°20'0 0.0
2016-May-17 20:31N 37°46' W 122°20'0 0.0
2016-May-17 19:31N 37°46' W 122°20'0 0.0
2016-May-17 18:31N 37°46' W 122°20'0 0.2
2016-May-17 17:31N 37°45' W 122°20'0 0.1
2016-May-17 16:33N 37°45' W 122°20'8 8.3
2016-May-17 15:33N 37°53' W 122°25'8 8.4
2016-May-17 14:33N 38°01' W 122°24'1010.2
2016-May-17 13:33N 38°03' W 122°11'2 0.8
2016-May-17 10:32N 38°02' W 122°08'0 0.0
2016-May-17 09:32N 38°02' W 122°08'0 0.0
2016-May-17 02:20N 38°02' W 122°08'0 0.0
2016-May-17 01:32N 38°02' W 122°08'0 0.0
2016-May-17 00:32N 38°02' W 122°08'  

Dump ship's entire track history